createdAt,value
2019-05-07T00:00:27.890Z,26.00
2019-05-07T00:02:56.197Z,23.63
2019-05-07T00:05:24.516Z,25.43
2019-05-07T00:07:52.826Z,22.93
2019-05-07T00:10:21.806Z,19.75
2019-05-07T00:12:52.013Z,24.00
2019-05-07T00:15:20.277Z,21.93
2019-05-07T00:17:48.876Z,25.55
2019-05-07T00:20:17.189Z,25.05
2019-05-07T00:22:45.524Z,20.97
2019-05-07T00:25:13.989Z,24.98
2019-05-07T00:27:42.761Z,23.65
2019-05-07T00:30:12.615Z,23.92
2019-05-07T00:32:42.390Z,23.05
2019-05-07T00:35:13.136Z,22.50
2019-05-07T00:37:52.358Z,23.60
2019-05-07T00:40:32.137Z,19.75
2019-05-07T00:43:04.798Z,22.27
2019-05-07T00:45:52.734Z,23.35
2019-05-07T00:48:20.598Z,27.60
2019-05-07T00:50:52.680Z,22.67
2019-05-07T00:53:20.621Z,21.80
2019-05-07T00:55:49.240Z,26.52
2019-05-07T00:58:17.529Z,21.27
2019-05-07T01:00:46.115Z,24.40
2019-05-07T01:03:14.871Z,25.00
2019-05-07T01:05:43.396Z,25.67
2019-05-07T01:08:13.201Z,22.80
2019-05-07T01:10:42.066Z,21.10
2019-05-07T01:13:12.642Z,26.15
2019-05-07T01:15:42.767Z,23.30
2019-05-07T01:18:12.342Z,21.57
2019-05-07T01:20:42.275Z,23.55
2019-05-07T01:23:13.227Z,21.00
2019-05-07T01:25:43.040Z,22.10
2019-05-07T01:28:13.260Z,24.07
2019-05-07T01:30:43.213Z,25.80
2019-05-07T01:33:19.590Z,24.30
2019-05-07T01:36:07.820Z,24.67
2019-05-07T01:38:36.130Z,23.83
2019-05-07T01:41:04.595Z,26.48
2019-05-07T01:43:32.905Z,20.82
2019-05-07T01:46:03.148Z,24.00
2019-05-07T01:48:32.372Z,24.12
2019-05-07T01:51:03.175Z,23.50
2019-05-07T01:53:32.322Z,22.30
2019-05-07T01:56:03.052Z,26.73
2019-05-07T01:58:33.145Z,25.72
2019-05-07T02:01:02.780Z,26.30
2019-05-07T02:03:52.682Z,24.47
2019-05-07T02:06:22.543Z,26.55
2019-05-07T02:08:58.429Z,25.60
2019-05-07T02:11:43.715Z,24.85
2019-05-07T02:14:13.674Z,26.95
2019-05-07T02:16:42.016Z,28.02
2019-05-07T02:19:12.507Z,28.80
2019-05-07T02:21:42.272Z,27.40
2019-05-07T02:24:12.440Z,29.53
2019-05-07T02:26:42.537Z,27.10
2019-05-07T02:29:12.225Z,25.77
2019-05-07T02:31:43.763Z,26.62
2019-05-07T02:34:13.778Z,24.35
2019-05-07T02:36:43.294Z,26.82
2019-05-07T02:39:13.107Z,24.07
2019-05-07T02:41:44.093Z,22.73
2019-05-07T02:44:14.095Z,24.13
2019-05-07T02:46:58.686Z,25.20
2019-05-07T02:49:37.621Z,26.83
2019-05-07T02:52:16.550Z,23.27
2019-05-07T02:54:46.509Z,22.30
2019-05-07T02:57:16.999Z,24.63
2019-05-07T02:59:45.179Z,24.07
2019-05-07T03:02:14.041Z,22.90
2019-05-07T03:04:43.627Z,21.73
2019-05-07T03:07:13.153Z,24.92
2019-05-07T03:09:43.122Z,21.33
2019-05-07T03:12:13.165Z,19.60
2019-05-07T03:14:43.808Z,19.57
2019-05-07T03:17:13.263Z,18.83
2019-05-07T03:19:43.555Z,20.05
2019-05-07T03:22:13.994Z,23.40
2019-05-07T03:24:49.122Z,24.23
2019-05-07T03:27:17.745Z,18.45
2019-05-07T03:29:47.692Z,22.10
2019-05-07T03:32:29.499Z,21.33
2019-05-07T03:35:06.026Z,21.65
2019-05-07T03:37:35.249Z,20.92
2019-05-07T03:40:03.789Z,22.90
2019-05-07T03:42:33.503Z,23.92
2019-05-07T03:45:03.958Z,23.18
2019-05-07T03:47:44.051Z,21.93
2019-05-07T03:50:14.616Z,23.80
2019-05-07T03:52:43.313Z,23.10
2019-05-07T03:55:14.596Z,21.30
2019-05-07T03:57:43.575Z,20.72
2019-05-07T04:00:13.535Z,20.37
2019-05-07T04:02:43.814Z,20.80
2019-05-07T04:05:14.042Z,19.32
2019-05-07T04:07:43.036Z,22.40
2019-05-07T04:10:14.603Z,21.12
2019-05-07T04:12:44.076Z,22.13
2019-05-07T04:15:14.528Z,21.60
2019-05-07T04:17:43.130Z,19.90
2019-05-07T04:20:13.490Z,20.95
2019-05-07T04:22:43.117Z,21.50
2019-05-07T04:25:23.948Z,20.55
2019-05-07T04:28:03.983Z,22.37
2019-05-07T04:30:33.278Z,25.30
2019-05-07T04:33:03.653Z,20.03
2019-05-07T04:35:43.035Z,23.20
2019-05-07T04:38:09.851Z,25.50
2019-05-07T04:40:38.146Z,26.65
2019-05-07T04:43:06.694Z,28.63
2019-05-07T04:45:35.159Z,27.13
2019-05-07T04:48:03.482Z,23.55
2019-05-07T04:50:42.758Z,26.10
2019-05-07T04:53:03.787Z,21.77
2019-05-07T04:55:33.489Z,27.15
2019-05-07T04:58:03.418Z,21.77
2019-05-07T05:00:33.586Z,21.87
2019-05-07T05:03:06.389Z,23.15
2019-05-07T05:05:34.860Z,24.95
2019-05-07T05:08:03.867Z,27.90
2019-05-07T05:10:33.658Z,24.10
2019-05-07T05:13:03.146Z,26.10
2019-05-07T05:15:32.245Z,25.45
2019-05-07T05:18:02.693Z,24.82
2019-05-07T05:20:33.643Z,29.45
2019-05-07T05:23:15.694Z,25.92
2019-05-07T05:25:44.067Z,25.25
2019-05-07T05:28:13.388Z,28.60
2019-05-07T05:30:56.761Z,27.50
2019-05-07T05:33:25.073Z,27.25
2019-05-07T05:35:53.420Z,25.85
2019-05-07T05:38:22.289Z,27.48
2019-05-07T05:40:52.133Z,26.12
2019-05-07T05:43:37.390Z,25.72
2019-05-07T05:46:07.424Z,25.32
2019-05-07T05:48:35.734Z,27.13
2019-05-07T05:51:05.793Z,25.90
2019-05-07T05:53:45.018Z,30.57
2019-05-07T05:56:32.265Z,27.42
2019-05-07T05:59:12.140Z,26.97
2019-05-07T06:04:44.801Z,25.35
2019-05-07T06:07:17.780Z,26.07
2019-05-07T06:09:47.729Z,23.90
2019-05-07T06:12:34.169Z,21.73
2019-05-07T06:15:22.085Z,24.70
2019-05-07T06:18:17.662Z,23.07
2019-05-07T06:20:35.087Z,25.92
2019-05-07T06:23:22.514Z,24.80
2019-05-07T06:25:52.303Z,27.60
2019-05-07T06:28:22.376Z,28.47
2019-05-07T06:30:52.691Z,22.87
2019-05-07T06:33:23.014Z,24.75
2019-05-07T06:35:52.036Z,25.77
2019-05-07T06:38:22.034Z,24.63
2019-05-07T06:41:07.728Z,25.27
2019-05-07T06:43:42.173Z,26.70
2019-05-07T06:46:12.540Z,26.37
2019-05-07T06:48:43.720Z,22.15
2019-05-07T06:51:12.598Z,23.60
2019-05-07T06:53:42.216Z,23.52
2019-05-07T06:56:12.228Z,24.15
2019-05-07T06:58:42.473Z,24.27
2019-05-07T07:01:14.878Z,26.97
2019-05-07T07:04:03.279Z,23.25
2019-05-07T07:06:33.490Z,26.05
2019-05-07T07:09:03.447Z,28.10
2019-05-07T07:11:33.426Z,25.70
2019-05-07T07:14:02.614Z,23.35
2019-05-07T07:16:32.597Z,23.75
2019-05-07T07:19:03.150Z,27.73
2019-05-07T07:21:32.702Z,26.45
2019-05-07T07:24:03.040Z,23.98
2019-05-07T07:26:32.790Z,23.18
2019-05-07T07:29:01.993Z,22.47
2019-05-07T07:31:34.869Z,22.10
2019-05-07T07:34:04.572Z,22.07
2019-05-07T07:36:34.501Z,21.45
2019-05-07T07:39:03.387Z,24.20
2019-05-07T07:41:39.331Z,23.62
2019-05-07T07:44:07.909Z,28.42
2019-05-07T07:46:36.590Z,27.05
2019-05-07T07:49:11.089Z,25.80
2019-05-07T07:51:41.521Z,25.30
2019-05-07T07:54:05.396Z,28.45
2019-05-07T07:56:48.981Z,26.80
2019-05-07T07:59:12.840Z,33.13
2019-05-07T08:01:52.470Z,32.93
2019-05-07T08:04:22.882Z,31.65
2019-05-07T08:06:52.538Z,32.08
2019-05-07T08:09:24.016Z,28.62
2019-05-07T08:11:52.715Z,30.08
2019-05-07T08:14:21.985Z,29.57
2019-05-07T08:16:52.771Z,30.10
2019-05-07T08:19:24.393Z,29.33
2019-05-07T08:21:52.124Z,29.72
2019-05-07T08:24:22.547Z,28.17
2019-05-07T08:26:51.891Z,22.85
2019-05-07T08:29:22.361Z,25.52
2019-05-07T08:32:02.315Z,24.32
2019-05-07T08:34:38.610Z,20.80
2019-05-07T08:37:06.908Z,22.73
2019-05-07T08:39:35.260Z,22.52
2019-05-07T08:42:04.116Z,20.85
2019-05-07T08:44:45.880Z,24.90
2019-05-07T08:47:24.967Z,24.98
2019-05-07T08:49:53.279Z,21.77
2019-05-07T08:52:22.345Z,22.58
2019-05-07T08:54:51.901Z,19.83
2019-05-07T08:57:22.562Z,22.50
2019-05-07T08:59:58.495Z,20.08
2019-05-07T09:02:22.206Z,21.90
2019-05-07T09:04:52.338Z,20.32
2019-05-07T09:07:21.853Z,19.50
2019-05-07T09:09:52.373Z,20.00
2019-05-07T09:12:22.711Z,19.77
2019-05-07T09:14:52.702Z,18.92
2019-05-07T09:17:22.763Z,21.42
2019-05-07T09:19:53.991Z,20.97
2019-05-07T09:22:22.892Z,19.60
2019-05-07T09:24:52.584Z,18.80
2019-05-07T09:27:23.039Z,18.92
2019-05-07T09:30:02.701Z,19.25
2019-05-07T09:32:42.517Z,18.20
2019-05-07T09:35:18.790Z,16.02
2019-05-07T09:37:47.112Z,19.50
2019-05-07T09:40:15.596Z,15.43
2019-05-07T09:42:43.904Z,19.40
2019-05-07T09:45:12.559Z,20.80
2019-05-07T09:47:41.803Z,15.68
2019-05-07T09:50:11.855Z,16.30
2019-05-07T09:52:42.525Z,15.45
2019-05-07T09:55:16.367Z,15.68
2019-05-07T09:57:42.459Z,14.45
2019-05-07T10:00:12.337Z,16.90
2019-05-07T10:02:42.531Z,15.72
2019-05-07T10:05:11.651Z,15.20
2019-05-07T10:07:42.201Z,12.73
2019-05-07T10:10:12.009Z,12.90
2019-05-07T10:12:44.969Z,12.37
2019-05-07T10:15:13.837Z,12.85
2019-05-07T10:17:43.852Z,14.00
2019-05-07T10:20:21.539Z,12.53
2019-05-07T10:22:42.959Z,16.05
2019-05-07T10:25:12.171Z,13.78
2019-05-07T10:27:41.889Z,15.05
2019-05-07T10:30:12.632Z,12.63
2019-05-07T10:32:42.112Z,16.40
2019-05-07T10:35:12.804Z,16.20
2019-05-07T10:37:42.331Z,16.12
2019-05-07T10:40:12.248Z,15.83
2019-05-07T10:42:42.818Z,19.02
2019-05-07T10:45:14.501Z,18.20
2019-05-07T10:47:52.013Z,16.20
2019-05-07T10:50:36.463Z,17.42
2019-05-07T10:52:58.014Z,17.35
2019-05-07T10:55:26.345Z,20.20
2019-05-07T10:57:54.702Z,20.32
2019-05-07T11:00:25.209Z,14.70
2019-05-07T11:02:53.505Z,14.70
2019-05-07T11:05:22.069Z,15.57
2019-05-07T11:07:50.388Z,15.60
2019-05-07T11:10:18.799Z,14.33
2019-05-07T11:12:47.100Z,17.75
2019-05-07T11:15:15.792Z,15.35
2019-05-07T11:17:52.215Z,16.07
2019-05-07T11:20:22.505Z,15.98
2019-05-07T11:22:52.213Z,16.65
2019-05-07T11:25:22.551Z,21.73
2019-05-07T11:27:52.422Z,19.40
2019-05-07T11:30:22.853Z,20.67
2019-05-07T11:32:52.208Z,15.55
2019-05-07T11:35:22.979Z,19.30
2019-05-07T11:37:52.029Z,16.20
2019-05-07T11:40:22.935Z,18.45
2019-05-07T11:42:59.195Z,18.23
2019-05-07T11:45:38.051Z,17.73
2019-05-07T11:48:06.372Z,21.90
2019-05-07T11:50:36.610Z,15.50
2019-05-07T11:53:12.347Z,15.03
2019-05-07T11:55:42.084Z,16.70
2019-05-07T11:58:12.642Z,14.18
2019-05-07T12:00:45.921Z,16.55
2019-05-07T12:03:14.581Z,12.95
2019-05-07T12:05:42.889Z,14.10
2019-05-07T12:08:13.068Z,12.43
2019-05-07T12:10:41.238Z,14.73
2019-05-07T12:13:09.840Z,14.25
2019-05-07T12:15:38.568Z,14.37
2019-05-07T12:18:06.854Z,14.55
2019-05-07T12:20:35.232Z,11.00
2019-05-07T12:23:03.537Z,13.32
2019-05-07T12:25:34.270Z,12.53
2019-05-07T12:28:02.610Z,12.60
2019-05-07T12:30:47.390Z,14.70
2019-05-07T12:33:20.289Z,12.78
2019-05-07T12:35:48.621Z,15.75
2019-05-07T12:38:16.951Z,12.80
2019-05-07T12:40:45.364Z,13.98
2019-05-07T12:43:13.684Z,14.68
2019-05-07T12:45:42.198Z,17.50
2019-05-07T12:48:12.180Z,15.73
2019-05-07T12:50:40.536Z,16.50
2019-05-07T12:53:28.768Z,18.90
2019-05-07T12:55:58.712Z,18.70
2019-05-07T12:58:27.546Z,20.40
2019-05-07T13:00:57.488Z,15.88
2019-05-07T13:03:39.519Z,21.33
2019-05-07T13:06:07.888Z,21.55
2019-05-07T13:08:36.191Z,18.87
2019-05-07T13:11:04.675Z,22.00
2019-05-07T13:13:32.968Z,16.35
2019-05-07T13:16:02.905Z,17.30
2019-05-07T13:18:31.915Z,13.38
2019-05-07T13:21:02.205Z,13.03
2019-05-07T13:23:31.844Z,13.35
2019-05-07T13:26:02.362Z,13.35
2019-05-07T13:28:30.822Z,12.13
2019-05-07T13:30:59.422Z,10.58
2019-05-07T13:33:27.922Z,11.43
2019-05-07T13:35:56.235Z,12.90
2019-05-07T13:38:29.305Z,14.70
2019-05-07T13:41:08.180Z,14.30
2019-05-07T13:43:41.029Z,12.13
2019-05-07T13:46:12.091Z,12.40
2019-05-07T13:48:45.494Z,13.25
2019-05-07T13:51:13.023Z,13.53
2019-05-07T13:53:42.798Z,13.32
2019-05-07T13:56:12.845Z,10.63
2019-05-07T13:58:42.846Z,12.93
2019-05-07T14:01:15.615Z,9.78
2019-05-07T14:03:43.988Z,12.83
2019-05-07T14:06:16.530Z,10.67
2019-05-07T14:08:45.114Z,11.00
2019-05-07T14:11:14.344Z,11.45
2019-05-07T14:13:43.631Z,10.00
2019-05-07T14:16:15.231Z,13.25
2019-05-07T14:18:43.608Z,10.68
2019-05-07T14:21:13.037Z,10.30
2019-05-07T14:23:42.758Z,11.95
2019-05-07T14:26:11.245Z,12.58
2019-05-07T14:28:42.158Z,10.72
2019-05-07T14:31:12.150Z,10.55
2019-05-07T14:33:41.640Z,13.20
2019-05-07T14:36:11.982Z,11.97
2019-05-07T14:38:42.645Z,11.55
2019-05-07T14:41:12.996Z,16.33
2019-05-07T14:43:43.246Z,13.50
2019-05-07T14:46:11.997Z,12.00
2019-05-07T14:48:41.910Z,12.35
2019-05-07T14:51:12.677Z,11.65
2019-05-07T14:53:41.849Z,13.05
2019-05-07T14:56:11.843Z,17.30
2019-05-07T14:58:42.261Z,13.18
2019-05-07T15:01:11.765Z,13.40
2019-05-07T15:03:42.247Z,12.60
2019-05-07T15:06:12.472Z,15.53
2019-05-07T15:08:40.362Z,14.05
2019-05-07T15:11:08.734Z,18.95
2019-05-07T15:13:37.127Z,14.00
2019-05-07T15:16:05.768Z,15.40
2019-05-07T15:18:42.470Z,19.10
2019-05-07T15:21:12.335Z,13.75
2019-05-07T15:23:42.479Z,18.13
2019-05-07T15:26:12.839Z,21.05
2019-05-07T15:28:43.010Z,16.65
2019-05-07T15:31:21.986Z,14.70
2019-05-07T15:33:52.162Z,15.25
2019-05-07T15:36:20.354Z,13.68
2019-05-07T15:38:48.657Z,18.23
2019-05-07T15:41:17.043Z,14.43
2019-05-07T15:43:46.256Z,14.70
2019-05-07T15:46:14.734Z,19.02
2019-05-07T15:48:43.025Z,14.15
2019-05-07T15:51:11.974Z,13.70
2019-05-07T15:53:42.767Z,15.28
2019-05-07T15:56:12.442Z,12.95
2019-05-07T15:58:42.588Z,15.50
2019-05-07T16:01:12.817Z,13.90
2019-05-07T16:03:43.373Z,12.10
2019-05-07T16:06:12.666Z,14.60
2019-05-07T16:08:48.753Z,14.73
2019-05-07T16:11:15.456Z,12.70
2019-05-07T16:13:45.416Z,16.25
2019-05-07T16:16:13.712Z,13.48
2019-05-07T16:19:01.770Z,17.92
2019-05-07T16:21:29.695Z,15.03
2019-05-07T16:23:58.247Z,15.13
2019-05-07T16:26:26.642Z,15.28
2019-05-07T16:28:54.945Z,16.55
2019-05-07T16:31:24.696Z,14.13
2019-05-07T16:33:53.215Z,12.97
2019-05-07T16:36:22.030Z,13.33
2019-05-07T16:38:52.512Z,12.47
2019-05-07T16:41:22.303Z,13.43
2019-05-07T16:43:52.468Z,11.63
2019-05-07T16:46:22.423Z,12.43
2019-05-07T16:48:50.836Z,10.82
2019-05-07T16:51:19.262Z,16.55
2019-05-07T16:53:47.613Z,11.85
2019-05-07T16:56:16.276Z,15.45
2019-05-07T16:58:46.209Z,12.53
2019-05-07T17:01:16.001Z,15.70
2019-05-07T17:03:45.960Z,12.98
2019-05-07T17:06:14.615Z,15.28
2019-05-07T17:08:46.984Z,13.10
2019-05-07T17:11:15.517Z,14.53
2019-05-07T17:13:43.817Z,9.60
2019-05-07T17:16:12.529Z,12.13
2019-05-07T17:18:40.842Z,11.47
2019-05-07T17:21:09.135Z,11.67
2019-05-07T17:23:44.024Z,14.23
2019-05-07T17:26:07.542Z,10.30
2019-05-07T17:28:35.837Z,13.00
2019-05-07T17:31:04.426Z,15.18
2019-05-07T17:33:32.725Z,14.73
2019-05-07T17:36:02.431Z,13.30
2019-05-07T17:38:32.251Z,12.85
2019-05-07T17:41:10.904Z,15.47
2019-05-07T17:43:32.480Z,17.10
2019-05-07T17:46:02.789Z,13.88
2019-05-07T17:48:32.296Z,12.98
2019-05-07T17:51:08.680Z,14.05
2019-05-07T17:53:37.467Z,14.33
2019-05-07T17:56:05.786Z,13.65
2019-05-07T17:58:34.091Z,17.40
2019-05-07T18:01:04.053Z,13.22
2019-05-07T18:03:36.531Z,12.58
2019-05-07T18:06:05.185Z,13.38
2019-05-07T18:08:33.875Z,13.20
2019-05-07T18:11:02.615Z,13.83
2019-05-07T18:13:32.653Z,15.60
2019-05-07T18:16:02.983Z,16.02
2019-05-07T18:18:32.783Z,15.43
2019-05-07T18:21:02.219Z,14.63
2019-05-07T18:23:32.135Z,16.10
2019-05-07T18:26:00.771Z,17.57
2019-05-07T18:28:29.934Z,14.30
2019-05-07T18:30:59.129Z,19.57
2019-05-07T18:33:33.634Z,18.03
2019-05-07T18:36:02.830Z,19.82
2019-05-07T18:38:32.873Z,18.20
2019-05-07T18:41:02.712Z,19.30
2019-05-07T18:43:32.963Z,15.40
2019-05-07T18:46:02.350Z,15.75
2019-05-07T18:48:30.889Z,14.07
2019-05-07T18:50:59.198Z,17.77
2019-05-07T18:53:27.553Z,22.30
2019-05-07T18:55:55.889Z,17.80
2019-05-07T18:58:24.488Z,19.05
2019-05-07T19:00:54.438Z,22.05
2019-05-07T19:03:25.234Z,21.10
2019-05-07T19:05:52.779Z,16.10
2019-05-07T19:08:22.957Z,15.45
2019-05-07T19:10:52.281Z,18.40
2019-05-07T19:13:22.160Z,17.02
2019-05-07T19:15:52.737Z,17.45
2019-05-07T19:18:22.803Z,16.03
2019-05-07T19:20:53.009Z,17.30
2019-05-07T19:23:22.350Z,15.10
2019-05-07T19:25:52.330Z,17.75
2019-05-07T19:28:22.484Z,16.12
2019-05-07T19:30:52.810Z,16.80
2019-05-07T19:33:26.176Z,16.60
2019-05-07T19:35:52.750Z,15.90
2019-05-07T19:38:21.386Z,18.52
2019-05-07T19:40:52.654Z,21.00
2019-05-07T19:43:20.529Z,18.73
2019-05-07T19:45:48.826Z,22.25
2019-05-07T19:48:17.554Z,21.73
2019-05-07T19:50:45.958Z,21.20
2019-05-07T19:53:14.272Z,24.45
2019-05-07T19:55:45.511Z,19.77
2019-05-07T19:58:13.834Z,21.65
2019-05-07T20:00:45.298Z,21.73
2019-05-07T20:03:13.143Z,22.93
2019-05-07T20:05:41.987Z,22.90
2019-05-07T20:08:12.047Z,20.90
2019-05-07T20:10:42.297Z,20.90
2019-05-07T20:13:12.476Z,24.18
2019-05-07T20:15:42.674Z,18.67
2019-05-07T20:18:12.448Z,18.05
2019-05-07T20:20:42.416Z,19.00
2019-05-07T20:23:12.012Z,17.20
2019-05-07T20:25:42.023Z,19.53
2019-05-07T20:28:12.722Z,17.17
2019-05-07T20:30:41.813Z,20.77
2019-05-07T20:33:10.178Z,19.50
2019-05-07T20:35:41.309Z,20.95
2019-05-07T20:38:08.786Z,19.37
2019-05-07T20:40:37.471Z,20.65
2019-05-07T20:43:06.035Z,18.82
2019-05-07T20:45:34.377Z,17.82
2019-05-07T20:48:02.698Z,18.57
2019-05-07T20:50:33.109Z,17.80
2019-05-07T20:53:02.032Z,19.95
2019-05-07T20:55:33.964Z,16.80
2019-05-07T20:58:03.203Z,19.85
2019-05-07T21:00:32.688Z,18.75
2019-05-07T21:03:19.817Z,19.42
2019-05-07T21:05:53.303Z,18.15
2019-05-07T21:08:22.796Z,19.30
2019-05-07T21:10:53.486Z,19.07
2019-05-07T21:13:28.500Z,18.00
2019-05-07T21:15:52.632Z,17.32
2019-05-07T21:18:23.223Z,20.43
2019-05-07T21:20:52.937Z,22.55
2019-05-07T21:23:23.035Z,20.25
2019-05-07T21:25:52.851Z,19.62
2019-05-07T21:28:21.475Z,23.35
2019-05-07T21:30:52.133Z,23.35
2019-05-07T21:33:22.589Z,21.73
2019-05-07T21:35:52.368Z,21.20
2019-05-07T21:38:22.335Z,23.75
2019-05-07T21:40:50.920Z,20.23
2019-05-07T21:43:19.227Z,21.90
2019-05-07T21:45:47.537Z,19.27
2019-05-07T21:48:15.846Z,18.50
2019-05-07T21:50:44.148Z,18.73
2019-05-07T21:53:23.127Z,20.88
2019-05-07T21:56:12.365Z,22.62
2019-05-07T21:58:45.628Z,22.45
2019-05-07T22:01:18.566Z,21.25
2019-05-07T22:03:48.541Z,22.35
2019-05-07T22:06:16.922Z,20.48
2019-05-07T22:08:45.221Z,19.95
2019-05-07T22:11:13.540Z,21.10
2019-05-07T22:13:43.539Z,19.55
2019-05-07T22:16:12.972Z,21.55
2019-05-07T22:18:42.655Z,20.67
2019-05-07T22:21:12.532Z,20.35
2019-05-07T22:23:42.757Z,22.05
2019-05-07T22:26:20.221Z,21.80
2019-05-07T22:28:42.025Z,20.30
2019-05-07T22:31:18.364Z,20.60
2019-05-07T22:33:52.651Z,27.27
2019-05-07T22:36:21.987Z,24.15
2019-05-07T22:38:52.479Z,22.25
2019-05-07T22:41:22.393Z,21.33
2019-05-07T22:43:50.890Z,22.75
2019-05-07T22:46:19.193Z,22.50
2019-05-07T22:48:47.757Z,24.87
2019-05-07T22:51:16.052Z,28.57
2019-05-07T22:53:44.363Z,24.72
2019-05-07T22:56:14.112Z,23.20
2019-05-07T22:58:44.208Z,26.85
2019-05-07T23:01:14.141Z,22.70
2019-05-07T23:03:43.073Z,24.87
2019-05-07T23:06:12.261Z,23.75
2019-05-07T23:08:42.418Z,23.75
2019-05-07T23:11:12.278Z,24.90
2019-05-07T23:13:42.671Z,25.40
2019-05-07T23:16:12.509Z,24.67
2019-05-07T23:18:42.836Z,24.87
2019-05-07T23:21:11.514Z,26.23
2019-05-07T23:23:42.016Z,25.70
2019-05-07T23:26:14.314Z,23.50
2019-05-07T23:28:41.882Z,23.32
2019-05-07T23:31:12.058Z,21.15
2019-05-07T23:33:40.313Z,24.10
2019-05-07T23:36:08.618Z,23.90
2019-05-07T23:38:36.919Z,24.95
2019-05-07T23:41:23.133Z,22.45
2019-05-07T23:44:12.551Z,21.42
2019-05-07T23:46:44.387Z,24.02
2019-05-07T23:49:12.426Z,24.00
2019-05-07T23:51:42.123Z,21.45
2019-05-07T23:54:12.212Z,23.93
2019-05-07T23:56:42.752Z,24.05
2019-05-07T23:59:12.775Z,23.32
